createdAt,value
2018-05-07T00:00:38.624Z,17.76
2018-05-07T00:01:48.444Z,17.81
2018-05-07T00:02:58.536Z,17.79
2018-05-07T00:04:08.663Z,17.8
2018-05-07T00:05:18.872Z,17.77
2018-05-07T00:06:29.019Z,17.68
2018-05-07T00:07:38.839Z,17.68
2018-05-07T00:08:48.416Z,17.65
2018-05-07T00:09:58.569Z,17.62
2018-05-07T00:11:08.721Z,17.5
2018-05-07T00:12:18.578Z,17.6
2018-05-07T00:13:28.675Z,17.6
2018-05-07T00:14:38.741Z,17.63
2018-05-07T00:15:49.001Z,17.58
2018-05-07T00:16:59.128Z,17.65
2018-05-07T00:18:08.934Z,17.63
2018-05-07T00:19:18.744Z,17.58
2018-05-07T00:20:28.873Z,17.63
2018-05-07T00:21:38.994Z,17.52
2018-05-07T00:22:49.061Z,17.6
2018-05-07T00:23:58.878Z,17.52
2018-05-07T00:25:08.708Z,17.54
2018-05-07T00:26:18.797Z,17.43
2018-05-07T00:27:28.920Z,17.43
2018-05-07T00:28:39.076Z,17.43
2018-05-07T00:29:49.153Z,17.43
2018-05-07T00:30:59.295Z,17.38
2018-05-07T00:32:09.375Z,17.4
2018-05-07T00:33:19.840Z,17.45
2018-05-07T00:34:29.496Z,17.47
2018-05-07T00:35:39.296Z,17.4
2018-05-07T00:36:49.114Z,17.42
2018-05-07T00:37:59.216Z,17.31
2018-05-07T00:39:09.290Z,17.38
2018-05-07T00:40:19.363Z,17.31
2018-05-07T00:41:29.437Z,17.3
2018-05-07T00:42:39.506Z,17.28
2018-05-07T00:43:49.569Z,17.24
2018-05-07T00:44:59.386Z,17.24
2018-05-07T00:46:09.472Z,17.25
2018-05-07T00:47:19.542Z,17.17
2018-05-07T00:48:29.632Z,17.15
2018-05-07T00:49:39.723Z,17.12
2018-05-07T00:50:49.608Z,17.12
2018-05-07T00:51:59.665Z,17.09
2018-05-07T00:53:09.506Z,17
2018-05-07T00:54:19.594Z,17.05
2018-05-07T00:55:29.677Z,17.03
2018-05-07T00:56:39.481Z,17
2018-05-07T00:57:49.612Z,16.94
2018-05-07T00:58:59.685Z,16.94
2018-05-07T01:00:09.781Z,16.92
2018-05-07T01:01:19.855Z,16.97
2018-05-07T01:02:29.912Z,16.97
2018-05-07T01:03:40.031Z,16.9
2018-05-07T01:04:49.839Z,17.05
2018-05-07T01:05:59.653Z,16.99
2018-05-07T01:07:09.466Z,17.03
2018-05-07T01:08:19.538Z,16.92
2018-05-07T01:09:29.599Z,16.97
2018-05-07T01:10:39.698Z,17.02
2018-05-07T01:11:49.511Z,16.88
2018-05-07T01:12:59.322Z,16.88
2018-05-07T01:14:09.414Z,16.91
2018-05-07T01:15:19.495Z,16.91
2018-05-07T01:16:29.582Z,16.88
2018-05-07T01:17:39.658Z,16.92
2018-05-07T01:18:49.453Z,16.9
2018-05-07T01:19:59.521Z,16.91
2018-05-07T01:21:09.324Z,16.92
2018-05-07T01:22:19.127Z,16.95
2018-05-07T01:23:29.201Z,16.91
2018-05-07T01:24:39.264Z,16.82
2018-05-07T01:25:48.549Z,16.8
2018-05-07T01:26:58.375Z,16.73
2018-05-07T01:28:08.447Z,16.72
2018-05-07T01:29:18.254Z,16.72
2018-05-07T01:30:28.067Z,16.7
2018-05-07T01:31:38.137Z,16.7
2018-05-07T01:32:48.209Z,16.67
2018-05-07T01:33:58.298Z,16.62
2018-05-07T01:35:08.353Z,16.58
2018-05-07T01:36:17.891Z,16.58
2018-05-07T01:37:27.433Z,16.51
2018-05-07T01:38:37.516Z,16.54
2018-05-07T01:39:47.317Z,16.45
2018-05-07T01:40:57.384Z,16.47
2018-05-07T01:42:06.665Z,16.48
2018-05-07T01:43:16.744Z,16.47
2018-05-07T01:44:26.868Z,16.45
2018-05-07T01:45:36.694Z,16.48
2018-05-07T01:46:46.761Z,16.47
2018-05-07T01:47:56.833Z,16.51
2018-05-07T01:49:06.646Z,16.48
2018-05-07T01:50:16.719Z,16.44
2018-05-07T01:51:26.789Z,16.42
2018-05-07T01:52:36.926Z,16.47
2018-05-07T01:53:47.017Z,16.44
2018-05-07T01:54:56.833Z,16.39
2018-05-07T01:56:06.905Z,16.47
2018-05-07T01:57:16.981Z,16.44
2018-05-07T01:58:27.034Z,16.37
2018-05-07T01:59:36.857Z,16.42
2018-05-07T02:00:46.661Z,16.42
2018-05-07T02:01:56.793Z,16.39
2018-05-07T02:03:06.867Z,16.44
2018-05-07T02:04:16.945Z,16.42
2018-05-07T02:05:27.037Z,16.37
2018-05-07T02:06:37.091Z,16.36
2018-05-07T02:07:47.181Z,16.32
2018-05-07T02:08:56.988Z,16.36
2018-05-07T02:10:06.536Z,16.33
2018-05-07T02:11:16.372Z,16.32
2018-05-07T02:12:26.449Z,16.4
2018-05-07T02:13:36.528Z,16.36
2018-05-07T02:14:46.332Z,16.37
2018-05-07T02:15:56.133Z,16.34
2018-05-07T02:17:06.204Z,16.36
2018-05-07T02:18:16.013Z,16.3
2018-05-07T02:19:25.864Z,16.34
2018-05-07T02:20:35.660Z,16.36
2018-05-07T02:21:45.722Z,16.37
2018-05-07T02:22:55.527Z,16.3
2018-05-07T02:24:05.597Z,16.34
2018-05-07T02:25:15.711Z,16.25
2018-05-07T02:26:25.785Z,16.29
2018-05-07T02:27:35.331Z,16.29
2018-05-07T02:28:45.419Z,16.27
2018-05-07T02:29:55.500Z,16.27
2018-05-07T02:31:05.576Z,16.29
2018-05-07T02:32:15.657Z,16.22
2018-05-07T02:33:25.744Z,16.25
2018-05-07T02:34:35.839Z,16.14
2018-05-07T02:35:45.944Z,16.18
2018-05-07T02:36:56.072Z,16.11
2018-05-07T02:38:05.877Z,16.06
2018-05-07T02:39:15.951Z,16.14
2018-05-07T02:40:26.032Z,16.11
2018-05-07T02:41:36.119Z,16.06
2018-05-07T02:42:46.247Z,15.96
2018-05-07T02:43:56.321Z,16
2018-05-07T02:45:06.418Z,15.98
2018-05-07T02:46:16.558Z,15.95
2018-05-07T02:47:26.372Z,15.93
2018-05-07T02:48:36.506Z,15.95
2018-05-07T02:49:46.584Z,16
2018-05-07T02:50:56.404Z,15.95
2018-05-07T02:52:06.211Z,16
2018-05-07T02:53:16.301Z,15.88
2018-05-07T02:54:26.430Z,15.91
2018-05-07T02:55:36.246Z,15.92
2018-05-07T02:56:46.058Z,15.88
2018-05-07T02:57:56.124Z,15.86
2018-05-07T02:59:05.687Z,15.83
2018-05-07T03:00:15.761Z,15.78
2018-05-07T03:01:25.826Z,15.83
2018-05-07T03:33:47.882Z,13.44
2018-05-07T03:34:57.929Z,13.42
2018-05-07T03:36:07.979Z,13.47
2018-05-07T03:37:18.059Z,13.5
2018-05-07T03:38:27.852Z,13.57
2018-05-07T03:39:37.674Z,13.6
2018-05-07T03:40:47.497Z,13.73
2018-05-07T03:41:57.556Z,13.87
2018-05-07T03:43:07.365Z,13.99
2018-05-07T03:44:17.432Z,14.2
2018-05-07T03:45:27.555Z,14.33
2018-05-07T03:46:37.636Z,14.45
2018-05-07T03:47:47.693Z,14.57
2018-05-07T03:48:57.519Z,14.7
2018-05-07T03:50:07.592Z,14.9
2018-05-07T03:51:17.705Z,14.97
2018-05-07T03:52:27.816Z,15.1
2018-05-07T03:53:37.893Z,15.25
2018-05-07T03:54:47.962Z,15.27
2018-05-07T03:55:58.043Z,15.45
2018-05-07T03:57:08.111Z,15.6
2018-05-07T03:58:18.204Z,15.55
2018-05-07T03:59:27.763Z,15.63
2018-05-07T04:00:37.830Z,15.74
2018-05-07T04:01:47.632Z,15.8
2018-05-07T04:02:57.442Z,15.83
2018-05-07T04:04:07.512Z,15.92
2018-05-07T04:05:17.579Z,15.99
2018-05-07T04:06:27.638Z,16
2018-05-07T04:07:37.709Z,16.21
2018-05-07T04:08:47.768Z,16.26
2018-05-07T04:09:57.845Z,16.37
2018-05-07T04:11:07.665Z,16.39
2018-05-07T04:12:17.475Z,16.51
2018-05-07T04:13:27.544Z,16.42
2018-05-07T04:14:37.633Z,16.45
2018-05-07T04:15:47.700Z,16.58
2018-05-07T04:16:57.781Z,16.62
2018-05-07T04:18:07.845Z,16.66
2018-05-07T04:19:17.657Z,16.84
2018-05-07T04:20:27.470Z,17.03
2018-05-07T04:21:37.512Z,17.77
2018-05-07T04:22:47.322Z,18.6
2018-05-07T04:23:57.396Z,18.79
2018-05-07T04:25:07.473Z,18.94
2018-05-07T04:26:17.555Z,18.74
2018-05-07T04:27:27.640Z,18.45
2018-05-07T04:28:37.731Z,18.31
2018-05-07T04:29:47.287Z,18.29
2018-05-07T04:30:57.359Z,18.34
2018-05-07T04:32:07.213Z,18.26
2018-05-07T04:33:17.017Z,18.41
2018-05-07T04:34:26.574Z,18.63
2018-05-07T04:35:36.638Z,19.02
2018-05-07T04:36:46.712Z,19.45
2018-05-07T04:37:56.771Z,19.78
2018-05-07T04:39:06.846Z,20.49
2018-05-07T04:40:16.908Z,21.06
2018-05-07T04:41:27.044Z,21.55
2018-05-07T04:42:37.131Z,22.16
2018-05-07T04:43:47.212Z,22.59
2018-05-07T04:44:57.000Z,23.1
2018-05-07T04:46:06.801Z,23.66
2018-05-07T04:47:16.869Z,24.02
2018-05-07T04:48:26.934Z,24.42
2018-05-07T04:49:37.004Z,24.64
2018-05-07T04:50:47.079Z,24.83
2018-05-07T04:51:57.135Z,25.01
2018-05-07T04:53:06.947Z,25.22
2018-05-07T04:54:17.050Z,25.29
2018-05-07T04:55:27.129Z,25.3
2018-05-07T04:56:37.197Z,25.34
2018-05-07T04:57:47.273Z,25.3
2018-05-07T04:58:57.338Z,25.26
2018-05-07T05:00:07.417Z,25.22
2018-05-07T05:01:17.234Z,25.15
2018-05-07T05:02:27.305Z,25.01
2018-05-07T05:03:37.378Z,25.08
2018-05-07T05:04:47.451Z,24.96
2018-05-07T05:05:57.541Z,24.86
2018-05-07T05:07:07.773Z,24.93
2018-05-07T05:08:17.793Z,25.08
2018-05-07T05:09:27.921Z,25.15
2018-05-07T05:10:37.990Z,25.12
2018-05-07T05:11:47.803Z,25.22
2018-05-07T05:12:57.621Z,25.29
2018-05-07T05:14:07.689Z,25.41
2018-05-07T05:15:17.490Z,25.56
2018-05-07T05:16:27.304Z,25.59
2018-05-07T05:17:37.379Z,25.75
2018-05-07T05:18:47.184Z,25.86
2018-05-07T05:19:57.274Z,25.91
2018-05-07T05:21:07.453Z,25.94
2018-05-07T05:22:17.639Z,25.84
2018-05-07T05:23:27.445Z,25.93
2018-05-07T05:24:37.316Z,25.75
2018-05-07T05:25:47.401Z,25.71
2018-05-07T05:26:57.219Z,25.82
2018-05-07T05:28:07.288Z,25.71
2018-05-07T05:29:17.393Z,25.74
2018-05-07T05:30:27.273Z,25.74
2018-05-07T05:31:37.084Z,25.75
2018-05-07T05:32:46.898Z,25.74
2018-05-07T05:33:56.979Z,25.76
2018-05-07T05:35:06.787Z,25.76
2018-05-07T05:36:16.851Z,25.82
2018-05-07T05:37:26.841Z,25.86
2018-05-07T05:38:36.976Z,25.79
2018-05-07T05:39:47.059Z,25.82
2018-05-07T05:40:57.117Z,25.84
2018-05-07T05:42:07.180Z,25.69
2018-05-07T05:43:17.245Z,25.75
2018-05-07T05:44:26.267Z,25.71
2018-05-07T05:45:36.343Z,25.64
2018-05-07T05:46:46.170Z,25.63
2018-05-07T05:47:56.248Z,25.59
2018-05-07T05:49:06.336Z,25.48
2018-05-07T05:50:16.011Z,25.44
2018-05-07T05:51:26.407Z,25.39
2018-05-07T05:52:35.958Z,25.32
2018-05-07T05:53:46.065Z,25.37
2018-05-07T05:54:56.138Z,25
2018-05-07T05:56:06.000Z,24.32
2018-05-07T05:57:16.195Z,23.71
2018-05-07T05:58:26.261Z,23.35
2018-05-07T05:59:36.414Z,23.03
2018-05-07T06:00:46.514Z,22.88
2018-05-07T06:01:56.586Z,22.7
2018-05-07T06:03:06.664Z,22.57
2018-05-07T06:04:16.742Z,22.42
2018-05-07T06:05:26.812Z,22.33
2018-05-07T06:06:36.885Z,22.23
2018-05-07T06:07:46.984Z,22.3
2018-05-07T06:08:57.139Z,22.42
2018-05-07T06:10:07.040Z,22.46
2018-05-07T06:11:16.851Z,22.55
2018-05-07T06:12:26.938Z,22.52
2018-05-07T06:13:36.757Z,22.51
2018-05-07T06:14:47.432Z,22.48
2018-05-07T06:15:58.238Z,22.45
2018-05-07T06:17:08.049Z,22.46
2018-05-07T06:18:18.134Z,22.46
2018-05-07T06:19:28.024Z,22.45
2018-05-07T06:20:38.119Z,22.41
2018-05-07T06:21:48.180Z,22.41
2018-05-07T06:22:58.313Z,22.31
2018-05-07T06:24:08.396Z,22.31
2018-05-07T06:25:18.487Z,22.18
2018-05-07T06:26:28.309Z,22.2
2018-05-07T06:27:38.378Z,22.12
2018-05-07T06:28:48.487Z,22.08
2018-05-07T06:29:58.341Z,22
2018-05-07T06:31:08.452Z,22
2018-05-07T06:32:18.522Z,21.99
2018-05-07T06:33:28.329Z,21.97
2018-05-07T06:34:38.207Z,22
2018-05-07T06:35:48.057Z,21.9
2018-05-07T06:36:58.173Z,21.82
2018-05-07T06:38:07.995Z,21.8
2018-05-07T06:39:17.832Z,21.7
2018-05-07T06:40:27.957Z,21.71
2018-05-07T06:41:38.035Z,21.76
2018-05-07T06:42:48.118Z,21.89
2018-05-07T06:43:58.003Z,21.9
2018-05-07T06:45:08.163Z,21.83
2018-05-07T06:46:18.650Z,21.86
2018-05-07T06:47:28.782Z,21.78
2018-05-07T06:48:38.598Z,21.89
2018-05-07T06:49:48.702Z,21.71
2018-05-07T06:50:58.800Z,21.71
2018-05-07T06:52:09.063Z,21.7
2018-05-07T06:53:19.325Z,21.85
2018-05-07T06:54:29.163Z,21.9
2018-05-07T06:55:38.793Z,21.82
2018-05-07T06:56:48.629Z,21.8
2018-05-07T06:57:58.499Z,21.76
2018-05-07T06:59:08.319Z,21.78
2018-05-07T07:00:18.398Z,21.77
2018-05-07T07:01:28.477Z,21.83
2018-05-07T07:02:38.930Z,21.78
2018-05-07T07:03:49.602Z,21.83
2018-05-07T07:04:59.423Z,21.9
2018-05-07T07:06:09.507Z,21.83
2018-05-07T07:07:19.582Z,21.82
2018-05-07T07:08:30.654Z,21.93
2018-05-07T07:09:41.530Z,21.97
2018-05-07T07:10:51.598Z,21.96
2018-05-07T07:12:01.137Z,22.05
2018-05-07T07:13:10.944Z,22.16
2018-05-07T07:14:21.040Z,22.16
2018-05-07T07:15:31.124Z,22.3
2018-05-07T07:16:41.218Z,22.24
2018-05-07T07:17:51.042Z,22.26
2018-05-07T07:19:00.864Z,22.3
2018-05-07T07:20:10.965Z,22.29
2018-05-07T07:21:20.799Z,22.26
2018-05-07T07:22:30.896Z,22.38
2018-05-07T07:23:40.982Z,22.39
2018-05-07T07:24:51.058Z,22.52
2018-05-07T07:26:01.132Z,22.51
2018-05-07T07:27:10.947Z,22.52
2018-05-07T07:28:21.223Z,22.54
2018-05-07T07:29:31.329Z,22.55
2018-05-07T07:30:41.413Z,22.64
2018-05-07T07:31:51.490Z,22.63
2018-05-07T07:33:01.588Z,22.75
2018-05-07T07:34:11.778Z,22.7
2018-05-07T07:35:21.847Z,22.73
2018-05-07T07:36:31.928Z,22.76
2018-05-07T07:37:41.730Z,22.79
2018-05-07T07:38:51.750Z,22.86
2018-05-07T07:40:03.172Z,22.88
2018-05-07T07:41:13.270Z,22.94
2018-05-07T07:42:23.330Z,22.88
2018-05-07T07:43:33.580Z,22.89
2018-05-07T07:44:43.393Z,22.88
2018-05-07T07:45:52.967Z,22.92
2018-05-07T07:47:03.260Z,22.91
2018-05-07T07:48:13.635Z,22.97
2018-05-07T07:49:23.883Z,22.92
2018-05-07T07:50:33.955Z,22.96
2018-05-07T07:51:44.106Z,23.07
2018-05-07T07:52:54.256Z,23.21
2018-05-07T07:54:03.881Z,23.15
2018-05-07T07:55:14.121Z,23.26
2018-05-07T07:56:24.547Z,23.38
2018-05-07T07:57:34.862Z,23.44
2018-05-07T07:58:44.945Z,23.57
2018-05-07T07:59:55.029Z,23.63
2018-05-07T08:01:05.273Z,23.59
2018-05-07T08:02:15.206Z,23.74
2018-05-07T08:03:25.294Z,23.64
2018-05-07T08:04:35.385Z,23.64
2018-05-07T08:05:45.667Z,23.57
2018-05-07T08:06:55.890Z,23.55
2018-05-07T08:08:05.971Z,23.53
2018-05-07T08:09:16.096Z,23.6
2018-05-07T08:10:25.960Z,23.6
2018-05-07T08:11:36.234Z,23.52
2018-05-07T08:12:46.365Z,23.7
2018-05-07T08:13:56.622Z,23.74
2018-05-07T08:15:07.196Z,23.74
2018-05-07T08:16:17.277Z,23.78
2018-05-07T08:17:27.361Z,23.85
2018-05-07T08:18:37.582Z,23.89
2018-05-07T08:19:47.655Z,23.87
2018-05-07T08:20:57.739Z,23.85
2018-05-07T08:22:07.936Z,23.82
2018-05-07T08:23:18.097Z,23.87
2018-05-07T08:24:28.320Z,23.94
2018-05-07T08:25:38.797Z,23.94
2018-05-07T08:26:48.961Z,24.03
2018-05-07T08:27:59.321Z,24.12
2018-05-07T08:29:09.526Z,24.14
2018-05-07T08:30:19.900Z,24.29
2018-05-07T08:31:29.931Z,24.34
2018-05-07T08:32:40.335Z,24.33
2018-05-07T08:33:50.436Z,24.34
2018-05-07T08:35:01.007Z,24.46
2018-05-07T08:36:10.829Z,24.55
2018-05-07T08:37:20.910Z,24.52
2018-05-07T08:38:30.911Z,24.64
2018-05-07T08:39:40.984Z,24.61
2018-05-07T08:40:50.788Z,24.64
2018-05-07T08:42:00.350Z,24.59
2018-05-07T08:43:10.427Z,24.67
2018-05-07T08:44:20.510Z,24.67
2018-05-07T08:45:30.356Z,24.66
2018-05-07T08:46:40.182Z,24.69
2018-05-07T08:47:49.983Z,24.82
2018-05-07T08:49:00.075Z,24.8
2018-05-07T08:50:09.642Z,24.92
2018-05-07T08:51:19.729Z,24.87
2018-05-07T08:52:29.822Z,24.86
2018-05-07T08:53:39.899Z,24.87
2018-05-07T08:54:49.451Z,24.82
2018-05-07T08:55:59.273Z,24.92
2018-05-07T08:57:09.361Z,24.9
2018-05-07T08:58:19.440Z,24.86
2018-05-07T08:59:29.525Z,24.92
2018-05-07T09:00:39.606Z,25.01
2018-05-07T09:01:49.828Z,25.09
2018-05-07T09:02:59.966Z,25.19
2018-05-07T09:04:10.064Z,25.15
2018-05-07T09:05:21.630Z,25.15
2018-05-07T09:06:32.027Z,25.27
2018-05-07T09:07:42.797Z,25.15
2018-05-07T09:08:56.607Z,25.08
2018-05-07T09:10:09.618Z,25.3
2018-05-07T09:11:22.695Z,25.27
2018-05-07T09:12:32.782Z,25.33
2018-05-07T09:13:43.020Z,25.3
2018-05-07T09:14:55.143Z,25.39
2018-05-07T09:16:08.200Z,25.33
2018-05-07T09:17:19.369Z,25.41
2018-05-07T09:18:30.073Z,25.48
2018-05-07T09:19:40.886Z,25.42
2018-05-07T09:20:51.638Z,25.54
2018-05-07T09:22:02.289Z,25.57
2018-05-07T09:23:13.343Z,25.63
2018-05-07T09:24:23.709Z,25.67
2018-05-07T09:25:33.949Z,25.74
2018-05-07T09:26:45.999Z,25.62
2018-05-07T09:27:59.631Z,25.74
2018-05-07T09:29:13.096Z,25.71
2018-05-07T09:30:26.851Z,25.82
2018-05-07T09:31:43.578Z,25.85
2018-05-07T09:33:01.064Z,25.97
2018-05-07T09:34:18.983Z,25.99
2018-05-07T09:35:36.787Z,26.01
2018-05-07T09:36:55.903Z,25.99
2018-05-07T09:38:11.670Z,26
2018-05-07T09:39:26.733Z,26.12
2018-05-07T09:40:42.354Z,26.2
2018-05-07T09:41:58.421Z,26.26
2018-05-07T09:43:13.734Z,26.31
2018-05-07T09:44:30.338Z,26.32
2018-05-07T09:45:46.340Z,26.27
2018-05-07T09:47:01.973Z,26.42
2018-05-07T09:48:19.097Z,26.31
2018-05-07T09:49:34.766Z,26.34
2018-05-07T09:50:50.880Z,26.26
2018-05-07T09:52:06.136Z,26.27
2018-05-07T09:53:24.098Z,26.35
2018-05-07T09:54:42.551Z,26.37
2018-05-07T09:55:58.578Z,26.38
2018-05-07T09:57:15.030Z,26.34
2018-05-07T09:58:30.897Z,26.31
2018-05-07T09:59:46.921Z,26.38
2018-05-07T10:01:04.483Z,26.45
2018-05-07T10:02:21.112Z,26.42
2018-05-07T10:03:35.738Z,26.53
2018-05-07T10:04:52.373Z,26.54
2018-05-07T10:06:08.295Z,26.6
2018-05-07T10:07:23.359Z,26.64
2018-05-07T10:08:39.982Z,26.69
2018-05-07T10:09:57.368Z,26.61
2018-05-07T10:11:13.923Z,26.64
2018-05-07T10:12:32.228Z,26.61
2018-05-07T10:13:48.273Z,26.67
2018-05-07T10:15:04.401Z,26.78
2018-05-07T10:16:19.753Z,26.84
2018-05-07T10:17:32.105Z,26.76
2018-05-07T10:18:42.205Z,26.96
2018-05-07T10:19:54.149Z,26.99
2018-05-07T10:21:10.463Z,26.97
2018-05-07T10:22:24.453Z,26.97
2018-05-07T10:23:38.750Z,27.04
2018-05-07T10:24:56.011Z,26.97
2018-05-07T10:26:14.447Z,26.97
2018-05-07T10:27:28.619Z,27.06
2018-05-07T10:28:45.313Z,27.09
2018-05-07T10:30:02.966Z,27.21
2018-05-07T10:31:21.202Z,27.23
2018-05-07T10:32:38.449Z,27.34
2018-05-07T10:33:53.747Z,27.42
2018-05-07T10:35:08.600Z,27.46
2018-05-07T10:36:24.542Z,27.38
2018-05-07T10:37:39.242Z,27.49
2018-05-07T10:38:52.812Z,27.62
2018-05-07T10:40:06.091Z,27.69
2018-05-07T10:41:20.197Z,27.89
2018-05-07T10:42:34.633Z,27.91
2018-05-07T10:43:52.054Z,27.81
2018-05-07T10:45:08.681Z,27.84
2018-05-07T10:46:23.394Z,27.87
2018-05-07T10:47:36.727Z,27.89
2018-05-07T10:48:52.398Z,27.84
2018-05-07T10:50:08.508Z,27.86
2018-05-07T10:51:26.655Z,27.89
2018-05-07T10:52:42.485Z,27.86
2018-05-07T10:53:58.432Z,27.99
2018-05-07T10:55:14.660Z,28.03
2018-05-07T10:56:29.379Z,28.09
2018-05-07T10:57:43.598Z,28.12
2018-05-07T10:59:01.019Z,28.11
2018-05-07T11:00:17.611Z,28.12
2018-05-07T11:01:31.901Z,28.11
2018-05-07T11:02:46.407Z,28.17
2018-05-07T11:04:01.653Z,28.2
2018-05-07T11:05:18.408Z,28.31
2018-05-07T11:06:32.761Z,28.33
2018-05-07T11:07:46.096Z,28.42
2018-05-07T11:08:56.184Z,28.41
2018-05-07T11:10:07.301Z,28.36
2018-05-07T11:11:19.232Z,28.39
2018-05-07T11:12:29.065Z,28.39
2018-05-07T11:13:42.950Z,28.42
2018-05-07T11:14:58.402Z,28.46
2018-05-07T11:16:13.336Z,28.51
2018-05-07T11:17:29.061Z,28.57
2018-05-07T11:18:42.915Z,28.6
2018-05-07T11:19:56.482Z,28.7
2018-05-07T11:21:10.294Z,28.85
2018-05-07T11:22:23.399Z,28.8
2018-05-07T11:23:33.486Z,28.85
2018-05-07T11:24:43.593Z,28.82
2018-05-07T11:25:53.440Z,28.91
2018-05-07T11:27:03.278Z,28.86
2018-05-07T11:28:13.165Z,28.91
2018-05-07T11:29:23.248Z,28.92
2018-05-07T11:30:33.331Z,29.06
2018-05-07T11:31:43.156Z,29.13
2018-05-07T11:32:52.982Z,29.11
2018-05-07T11:34:03.124Z,29.17
2018-05-07T11:35:13.203Z,29.24
2018-05-07T11:36:23.320Z,29.29
2018-05-07T11:37:33.430Z,29.29
2018-05-07T11:38:43.258Z,29.23
2018-05-07T11:39:53.133Z,29.28
2018-05-07T11:41:03.215Z,29.29
2018-05-07T11:42:13.307Z,29.36
2018-05-07T11:43:23.417Z,29.33
2018-05-07T11:44:33.521Z,29.42
2018-05-07T11:45:43.669Z,29.48
2018-05-07T11:46:53.768Z,29.55
2018-05-07T11:48:03.930Z,29.57
2018-05-07T11:49:13.769Z,29.7
2018-05-07T11:50:23.937Z,29.73
2018-05-07T11:51:34.031Z,29.76
2018-05-07T11:52:44.147Z,29.77
2018-05-07T11:53:53.980Z,29.75
2018-05-07T11:55:04.081Z,29.75
2018-05-07T11:56:14.168Z,29.67
2018-05-07T11:57:24.317Z,29.72
2018-05-07T11:58:34.422Z,29.65
2018-05-07T11:59:44.526Z,29.63
2018-05-07T12:00:54.615Z,29.66
2018-05-07T12:02:04.738Z,29.63
2018-05-07T12:03:14.954Z,29.58
2018-05-07T12:04:24.796Z,29.65
2018-05-07T12:05:34.888Z,29.66
2018-05-07T12:06:44.971Z,29.63
2018-05-07T12:07:55.077Z,29.66
2018-05-07T12:09:05.435Z,29.66
2018-05-07T12:10:15.680Z,29.65
2018-05-07T12:11:25.783Z,29.66
2018-05-07T12:12:35.895Z,29.73
2018-05-07T12:13:45.983Z,29.77
2018-05-07T12:22:05.630Z,29.95
2018-05-07T12:23:15.923Z,30.02
2018-05-07T12:24:26.277Z,29.95
2018-05-07T12:25:36.362Z,29.97
2018-05-07T12:26:46.450Z,30.07
2018-05-07T12:27:56.608Z,30
2018-05-07T12:29:06.445Z,30.02
2018-05-07T12:30:16.292Z,30.02
2018-05-07T12:31:26.655Z,29.97
2018-05-07T12:32:37.027Z,29.88
2018-05-07T12:33:47.131Z,29.89
2018-05-07T12:34:57.211Z,29.92
2018-05-07T12:36:07.045Z,29.94
2018-05-07T12:37:17.135Z,29.77
2018-05-07T12:38:27.211Z,29.75
2018-05-07T12:39:37.026Z,29.79
2018-05-07T12:40:46.851Z,29.75
2018-05-07T12:41:56.964Z,29.75
2018-05-07T12:43:07.048Z,29.73
2018-05-07T12:44:17.129Z,29.76
2018-05-07T12:45:27.237Z,29.79
2018-05-07T12:46:37.339Z,29.91
2018-05-07T12:47:47.345Z,29.98
2018-05-07T12:48:57.438Z,30
2018-05-07T12:50:07.533Z,30.03
2018-05-07T12:51:17.359Z,30.07
2018-05-07T12:52:27.245Z,30.14
2018-05-07T12:53:37.509Z,30.13
2018-05-07T12:54:47.347Z,30.11
2018-05-07T12:55:57.442Z,30.02
2018-05-07T12:57:07.549Z,30.1
2018-05-07T12:58:17.645Z,30.03
2018-05-07T12:59:27.490Z,30.16
2018-05-07T13:00:37.594Z,30.1
2018-05-07T13:01:47.681Z,30.07
2018-05-07T13:02:57.832Z,30.11
2018-05-07T13:04:07.667Z,30.07
2018-05-07T13:05:17.751Z,29.98
2018-05-07T13:06:27.356Z,30.07
2018-05-07T13:07:36.920Z,30.04
2018-05-07T13:08:46.794Z,30.03
2018-05-07T13:09:56.903Z,30.1
2018-05-07T13:11:07.022Z,30.13
2018-05-07T13:12:16.850Z,30.1
2018-05-07T13:13:26.952Z,30.1
2018-05-07T13:14:36.786Z,30.09
2018-05-07T13:15:46.972Z,30.11
2018-05-07T13:16:56.814Z,30.16
2018-05-07T13:18:06.903Z,30.19
2018-05-07T13:19:16.734Z,30.22
2018-05-07T13:20:26.864Z,30.26
2018-05-07T13:21:36.965Z,30.31
2018-05-07T13:22:47.072Z,30.31
2018-05-07T13:23:57.163Z,30.37
2018-05-07T13:25:07.010Z,30.26
2018-05-07T13:26:17.096Z,30.37
2018-05-07T13:27:27.243Z,30.32
2018-05-07T13:28:37.349Z,30.39
2018-05-07T13:29:47.436Z,30.48
2018-05-07T13:30:57.015Z,30.48
2018-05-07T13:32:07.117Z,30.51
2018-05-07T13:33:17.200Z,30.51
2018-05-07T13:34:27.574Z,30.47
2018-05-07T13:35:37.647Z,30.51
2018-05-07T13:36:47.592Z,30.39
2018-05-07T13:37:57.480Z,30.34
2018-05-07T13:39:07.553Z,30.48
2018-05-07T13:40:17.388Z,30.47
2018-05-07T13:41:27.475Z,30.44
2018-05-07T13:42:37.628Z,30.44
2018-05-07T13:43:47.457Z,30.42
2018-05-07T13:44:57.301Z,30.39
2018-05-07T13:46:07.410Z,30.35
2018-05-07T13:47:17.230Z,30.34
2018-05-07T13:48:27.364Z,30.37
2018-05-07T13:49:37.456Z,30.26
2018-05-07T13:50:47.297Z,30.25
2018-05-07T13:51:57.409Z,30.32
2018-05-07T13:53:07.497Z,30.31
2018-05-07T13:54:17.601Z,30.28
2018-05-07T13:55:27.444Z,30.26
2018-05-07T13:56:37.270Z,30.25
2018-05-07T13:57:47.095Z,30.28
2018-05-07T13:58:56.933Z,30.31
2018-05-07T14:00:07.081Z,30.34
2018-05-07T14:01:17.190Z,30.29
2018-05-07T14:02:27.303Z,30.26
2018-05-07T14:03:37.124Z,30.4
2018-05-07T14:04:47.215Z,30.32
2018-05-07T14:05:57.038Z,30.28
2018-05-07T14:07:06.861Z,30.35
2018-05-07T14:08:16.959Z,30.31
2018-05-07T14:09:26.818Z,30.35
2018-05-07T14:10:36.903Z,30.29
2018-05-07T14:11:47.014Z,30.35
2018-05-07T14:12:56.636Z,30.44
2018-05-07T14:14:06.748Z,30.48
2018-05-07T14:15:16.854Z,30.47
2018-05-07T14:16:26.678Z,30.45
2018-05-07T14:17:36.757Z,30.52
2018-05-07T14:18:46.944Z,30.47
2018-05-07T14:19:57.031Z,30.45
2018-05-07T14:21:06.862Z,30.56
2018-05-07T14:22:16.934Z,30.49
2018-05-07T14:23:27.032Z,30.51
2018-05-07T14:24:37.186Z,30.45
2018-05-07T14:25:47.005Z,30.48
2018-05-07T14:26:56.837Z,30.29
2018-05-07T14:28:06.963Z,30.34
2018-05-07T14:29:17.051Z,30.35
2018-05-07T14:30:27.202Z,30.28
2018-05-07T14:31:37.293Z,30.42
2018-05-07T14:32:47.399Z,30.32
2018-05-07T14:33:57.498Z,30.35
2018-05-07T14:35:07.626Z,30.37
2018-05-07T14:36:17.801Z,30.45
2018-05-07T14:37:27.892Z,30.4
2018-05-07T14:38:37.720Z,30.48
2018-05-07T14:39:47.573Z,30.31
2018-05-07T14:40:57.691Z,30.34
2018-05-07T14:42:07.889Z,30.39
2018-05-07T14:43:18.305Z,30.29
2018-05-07T14:44:31.009Z,30.34
2018-05-07T14:45:42.909Z,30.29
2018-05-07T14:46:55.472Z,30.39
2018-05-07T14:48:07.905Z,30.37
2018-05-07T14:49:19.853Z,30.29
2018-05-07T14:50:31.907Z,30.51
2018-05-07T14:51:44.544Z,30.48
2018-05-07T14:52:55.618Z,30.51
2018-05-07T14:54:06.550Z,30.49
2018-05-07T14:55:16.694Z,30.35
2018-05-07T14:56:26.826Z,30.37
2018-05-07T14:57:36.955Z,30.45
2018-05-07T14:58:46.724Z,30.51
2018-05-07T14:59:56.943Z,30.51
2018-05-07T15:01:07.101Z,30.52
2018-05-07T15:02:16.963Z,30.44
2018-05-07T15:03:26.823Z,30.54
2018-05-07T15:04:36.739Z,30.48
2018-05-07T15:05:46.908Z,30.47
2018-05-07T15:06:57.045Z,30.51
2018-05-07T15:08:07.155Z,30.32
2018-05-07T15:09:17.290Z,30.4
2018-05-07T15:10:27.468Z,30.34
2018-05-07T15:11:37.593Z,30.29
2018-05-07T15:12:47.444Z,30.29
2018-05-07T15:13:57.562Z,30.16
2018-05-07T15:15:07.668Z,30.14
2018-05-07T15:16:17.857Z,30.14
2018-05-07T15:17:27.976Z,30.09
2018-05-07T15:18:38.104Z,30.11
2018-05-07T15:19:47.956Z,30.1
2018-05-07T15:20:57.852Z,30.07
2018-05-07T15:22:08.133Z,29.97
2018-05-07T15:23:18.473Z,30
2018-05-07T15:24:28.516Z,29.91
2018-05-07T15:25:38.636Z,29.92
2018-05-07T15:26:48.780Z,29.73
2018-05-07T15:27:58.606Z,29.79
2018-05-07T15:29:08.815Z,29.75
2018-05-07T15:30:18.984Z,29.72
2018-05-07T15:31:29.113Z,29.77
2018-05-07T15:32:39.358Z,29.7
2018-05-07T15:33:49.480Z,29.61
2018-05-07T15:34:59.353Z,29.65
2018-05-07T15:36:20.369Z,29.65
2018-05-07T15:37:30.777Z,29.66
2018-05-07T15:38:40.957Z,29.52
2018-05-07T15:39:51.146Z,29.54
2018-05-07T15:41:01.242Z,29.55
2018-05-07T15:42:11.346Z,29.5
2018-05-07T15:43:21.482Z,29.48
2018-05-07T15:44:31.684Z,29.47
2018-05-07T15:45:42.240Z,29.47
2018-05-07T15:46:52.385Z,29.5
2018-05-07T15:48:02.588Z,29.42
2018-05-07T15:49:12.813Z,29.5
2018-05-07T15:50:23.170Z,29.47
2018-05-07T15:51:33.296Z,29.47
2018-05-07T15:52:43.153Z,29.48
2018-05-07T15:53:53.596Z,29.39